Hlavní strana
METAR-TAF:

METAR-TAF

Letiště :

Vardø, Norsko

zeměpisná šířka: 70-21N, zeměpisná délka: 031-03E, výška: 12 m

Aktuální stav počasí

Zpráva byla vytvořena před 40 minutami, v 20:20 UTC
Jihozápadní vítr 9 kt, proměnlivý mezi jižním a západojihozápadním
Teplota 14°C
Vlhkost vzduchu 100%
Tlak 1001 hPa
Viditelnost: 7000 m
Oblačno až skoro zataženo ve výšce 500 ft
Zataženo ve výšce 900 ft
slabé dešťové přeháňky

METAR: ENSS 102020Z 22009KT 180V240 7000 -SHRA BKN005 OVC009 14/14 Q1001 RMK WIND 0500FT 22022KT

Čas: 23:00 (21:00 UTC)


TAF: chybějící

Stav a předpovědi počasí z více než 4 000 letišť (zprávy METAR a TAF).

Červené a žluté tečky na mapě představují dostupné meteorologické stanice.

Když kurzor umístíte na tečku, zobrazí se název stanice.

Pak kliknutím zobrazíte stav a předpověď počasí.

Chcete-li změnit mapu, kliknutím na zelené tlačítko se znaménkem +mapu přiblížíte, kliknutím na zelené tlačítko se znaménkem – mapu oddálíte a kliknutím na zelené šipky přejdete na sousední mapy.


METAR-TAF: